createdAt,value
2023-02-26T00:00:12.226Z,1.73
2023-02-26T00:02:39.532Z,1.73
2023-02-26T00:05:07.153Z,1.60
2023-02-26T00:07:34.215Z,2.40
2023-02-26T00:10:02.710Z,1.45
2023-02-26T00:12:30.215Z,1.70
2023-02-26T00:14:57.765Z,1.77
2023-02-26T00:17:28.932Z,1.80
2023-02-26T00:19:56.174Z,1.77
2023-02-26T00:22:23.547Z,1.42
2023-02-26T00:24:50.485Z,1.55
2023-02-26T00:27:17.495Z,1.30
2023-02-26T00:29:45.580Z,1.75
2023-02-26T00:30:49.386Z,2.47
2023-02-26T00:32:12.741Z,2.05
2023-02-26T00:33:17.968Z,2.27
2023-02-26T00:34:40.720Z,1.55
2023-02-26T00:37:13.876Z,2.55
2023-02-26T00:39:46.778Z,1.98
2023-02-26T00:42:14.451Z,1.38
2023-02-26T00:43:29.417Z,2.63
2023-02-26T00:44:41.525Z,1.58
2023-02-26T00:46:17.224Z,3.07
2023-02-26T00:47:31.062Z,1.65
2023-02-26T00:48:54.934Z,2.97
2023-02-26T00:50:14.185Z,1.80
2023-02-26T00:52:47.622Z,1.90
2023-02-26T00:55:14.591Z,1.67
2023-02-26T00:57:41.549Z,1.85
2023-02-26T00:59:12.315Z,2.97
2023-02-26T01:00:08.947Z,1.80
2023-02-26T01:01:42.004Z,2.60
2023-02-26T01:02:36.839Z,1.65
2023-02-26T01:05:04.195Z,2.15
2023-02-26T01:07:34.481Z,1.88
2023-02-26T01:10:01.575Z,1.55
2023-02-26T01:11:51.101Z,2.20
2023-02-26T01:12:28.867Z,1.60
2023-02-26T01:14:56.017Z,1.85
2023-02-26T01:16:53.659Z,2.67
2023-02-26T01:17:32.347Z,1.95
2023-02-26T01:20:06.673Z,2.15
2023-02-26T01:22:03.785Z,2.70
2023-02-26T01:22:36.240Z,1.92
2023-02-26T01:24:32.757Z,2.33
2023-02-26T01:25:10.418Z,2.03
2023-02-26T01:27:37.485Z,2.05
2023-02-26T01:29:29.441Z,2.50
2023-02-26T01:30:05.081Z,1.27
2023-02-26T01:32:04.663Z,2.23
2023-02-26T01:32:35.444Z,3.00
2023-02-26T01:35:05.932Z,2.00
2023-02-26T01:37:23.129Z,2.43
2023-02-26T01:37:42.192Z,1.90
2023-02-26T01:40:27.913Z,2.00
2023-02-26T01:42:33.249Z,2.30
2023-02-26T01:42:56.875Z,1.90
2023-02-26T01:45:35.812Z,1.50
2023-02-26T01:48:05.538Z,1.90
2023-02-26T01:50:13.244Z,2.10
2023-02-26T01:50:36.657Z,1.40
2023-02-26T01:53:15.900Z,1.55
2023-02-26T01:55:43.951Z,2.13
2023-02-26T01:55:54.036Z,2.27
2023-02-26T01:58:11.273Z,1.92
2023-02-26T01:58:22.912Z,2.80
2023-02-26T02:00:38.317Z,1.60
2023-02-26T02:00:52.124Z,2.00
2023-02-26T02:03:05.706Z,1.50
2023-02-26T02:03:23.691Z,2.10
2023-02-26T02:05:35.278Z,1.60
2023-02-26T02:05:57.563Z,2.03
2023-02-26T02:08:02.400Z,1.30
2023-02-26T02:08:26.277Z,1.77
2023-02-26T02:10:29.669Z,1.55
2023-02-26T02:10:55.843Z,1.77
2023-02-26T02:13:04.828Z,1.60
2023-02-26T02:15:40.726Z,1.50
2023-02-26T02:18:19.578Z,1.50
2023-02-26T02:20:58.276Z,1.58
2023-02-26T02:21:38.247Z,1.63
2023-02-26T02:23:28.222Z,1.55
2023-02-26T02:24:12.749Z,2.00
2023-02-26T02:26:13.408Z,1.65
2023-02-26T02:26:54.894Z,1.80
2023-02-26T02:28:49.281Z,1.42
2023-02-26T02:29:42.050Z,2.63
2023-02-26T02:31:34.945Z,1.60
2023-02-26T02:32:12.592Z,3.37
2023-02-26T02:34:05.568Z,1.80
2023-02-26T02:36:37.070Z,1.40
2023-02-26T02:37:17.418Z,2.30
2023-02-26T02:39:07.514Z,2.05
2023-02-26T02:41:46.681Z,1.80
2023-02-26T02:44:16.274Z,1.63
2023-02-26T02:45:03.203Z,2.30
2023-02-26T02:46:44.894Z,1.88
2023-02-26T02:49:21.173Z,2.05
2023-02-26T02:50:11.538Z,1.87
2023-02-26T02:51:52.412Z,1.70
2023-02-26T02:52:42.979Z,2.53
2023-02-26T02:54:32.209Z,1.90
2023-02-26T02:57:03.007Z,1.80
2023-02-26T02:57:52.966Z,2.20
2023-02-26T02:59:34.412Z,1.55
2023-02-26T03:00:23.098Z,2.10
2023-02-26T03:02:11.076Z,1.58
2023-02-26T03:02:54.508Z,1.63
2023-02-26T03:04:38.661Z,1.52
2023-02-26T03:05:22.782Z,2.07
2023-02-26T03:07:05.651Z,1.52
2023-02-26T03:07:54.843Z,2.00
2023-02-26T03:09:33.086Z,1.85
2023-02-26T03:10:23.135Z,2.20
2023-02-26T03:12:00.013Z,1.80
2023-02-26T03:14:27.381Z,1.60
2023-02-26T03:17:02.082Z,1.40
2023-02-26T03:19:47.713Z,1.40
2023-02-26T03:22:32.793Z,1.70
2023-02-26T03:25:10.353Z,1.70
2023-02-26T03:25:49.894Z,2.30
2023-02-26T03:27:41.764Z,2.22
2023-02-26T03:30:12.983Z,1.75
2023-02-26T03:30:57.073Z,1.97
2023-02-26T03:33:03.332Z,1.75
2023-02-26T03:33:29.530Z,2.37
2023-02-26T03:35:37.391Z,2.28
2023-02-26T03:36:00.984Z,1.90
2023-02-26T03:38:07.464Z,1.98
2023-02-26T03:38:32.351Z,2.20
2023-02-26T03:40:37.090Z,1.50
2023-02-26T03:43:10.052Z,1.70
2023-02-26T03:45:38.740Z,2.10
2023-02-26T03:46:17.810Z,2.20
2023-02-26T03:48:07.881Z,1.80
2023-02-26T03:48:48.950Z,2.07
2023-02-26T03:50:38.418Z,1.90
2023-02-26T03:51:17.881Z,2.30
2023-02-26T03:53:07.760Z,1.52
2023-02-26T03:55:43.695Z,1.63
2023-02-26T03:58:10.648Z,1.65
2023-02-26T03:58:58.003Z,2.73
2023-02-26T04:00:38.548Z,1.60
2023-02-26T04:01:27.952Z,1.70
2023-02-26T04:03:12.219Z,1.45
2023-02-26T04:03:59.937Z,1.90
2023-02-26T04:05:42.150Z,1.60
2023-02-26T04:06:28.728Z,2.10
2023-02-26T04:08:09.222Z,1.88
2023-02-26T04:08:57.284Z,1.97
2023-02-26T04:10:42.237Z,1.40
2023-02-26T04:11:26.617Z,2.00
2023-02-26T04:13:09.210Z,1.85
2023-02-26T04:15:36.146Z,1.80
2023-02-26T04:18:03.394Z,1.10
2023-02-26T04:19:02.319Z,2.60
2023-02-26T04:20:30.456Z,1.92
2023-02-26T04:22:57.417Z,1.75
2023-02-26T04:23:58.695Z,1.47
2023-02-26T04:25:24.418Z,2.22
2023-02-26T04:26:27.181Z,1.73
2023-02-26T04:27:51.423Z,1.52
2023-02-26T04:30:18.715Z,1.70
2023-02-26T04:32:45.684Z,2.22
2023-02-26T04:34:03.418Z,1.40
2023-02-26T04:35:12.610Z,1.77
2023-02-26T04:36:31.511Z,1.90
2023-02-26T04:37:39.552Z,1.35
2023-02-26T04:40:06.946Z,1.65
2023-02-26T04:42:33.862Z,1.88
2023-02-26T04:44:01.328Z,1.93
2023-02-26T04:45:00.821Z,1.50
2023-02-26T04:47:27.767Z,1.70
2023-02-26T04:48:57.667Z,1.90
2023-02-26T04:49:54.764Z,1.40
2023-02-26T04:52:21.975Z,1.08
2023-02-26T04:54:48.935Z,1.60
2023-02-26T04:57:15.884Z,1.27
2023-02-26T04:58:56.560Z,1.87
2023-02-26T04:59:42.949Z,1.25
2023-02-26T05:01:24.776Z,2.23
2023-02-26T05:02:10.784Z,1.50
2023-02-26T05:03:53.094Z,2.07
2023-02-26T05:04:37.845Z,1.40
2023-02-26T05:06:21.361Z,2.13
2023-02-26T05:07:04.939Z,2.00
2023-02-26T05:08:50.957Z,2.10
2023-02-26T05:09:31.913Z,1.80
2023-02-26T05:11:58.895Z,1.85
2023-02-26T05:13:52.350Z,1.77
2023-02-26T05:14:25.833Z,1.52
2023-02-26T05:16:20.694Z,1.60
2023-02-26T05:16:52.876Z,1.73
2023-02-26T05:19:19.980Z,1.77
2023-02-26T05:21:22.482Z,1.93
2023-02-26T05:21:49.134Z,1.75
2023-02-26T05:23:52.666Z,2.63
2023-02-26T05:24:16.414Z,2.17
2023-02-26T05:26:20.893Z,1.80
2023-02-26T05:26:43.397Z,1.50
2023-02-26T05:29:10.333Z,1.85
2023-02-26T05:31:37.313Z,1.50
2023-02-26T05:34:04.358Z,1.80
2023-02-26T05:36:31.298Z,1.50
2023-02-26T05:38:54.067Z,2.60
2023-02-26T05:38:58.227Z,2.10
2023-02-26T05:41:22.326Z,2.00
2023-02-26T05:41:25.213Z,1.50
2023-02-26T05:43:52.157Z,1.38
2023-02-26T05:46:19.275Z,1.20
2023-02-26T05:48:46.300Z,1.40
2023-02-26T05:48:51.794Z,2.00
2023-02-26T05:51:13.306Z,1.35
2023-02-26T05:53:40.461Z,1.35
2023-02-26T05:56:07.677Z,1.48
2023-02-26T05:58:34.930Z,1.50
2023-02-26T06:01:01.966Z,1.27
2023-02-26T06:03:29.196Z,0.90
2023-02-26T06:05:56.325Z,2.00
2023-02-26T06:08:23.373Z,1.35
2023-02-26T06:10:51.260Z,1.10
2023-02-26T06:13:18.701Z,1.05
2023-02-26T06:15:45.640Z,1.55
2023-02-26T06:18:12.613Z,1.15
2023-02-26T06:20:39.630Z,1.52
2023-02-26T06:23:06.600Z,1.17
2023-02-26T06:25:33.572Z,1.25
2023-02-26T06:28:00.588Z,1.08
2023-02-26T06:30:27.686Z,1.42
2023-02-26T06:31:45.060Z,2.03
2023-02-26T06:32:54.630Z,1.52
2023-02-26T06:34:13.353Z,1.60
2023-02-26T06:35:21.570Z,2.15
2023-02-26T06:36:41.623Z,1.87
2023-02-26T06:37:48.586Z,1.50
2023-02-26T06:39:11.053Z,1.53
2023-02-26T06:40:15.628Z,2.08
2023-02-26T06:41:39.302Z,2.30
2023-02-26T06:42:42.617Z,2.22
2023-02-26T06:45:09.761Z,2.10
2023-02-26T06:47:36.931Z,1.88
2023-02-26T06:49:14.806Z,1.50
2023-02-26T06:50:05.073Z,1.75
2023-02-26T06:52:32.280Z,1.45
2023-02-26T06:54:59.387Z,1.75
2023-02-26T06:56:49.217Z,2.23
2023-02-26T06:57:26.399Z,1.83
2023-02-26T06:59:17.097Z,2.40
2023-02-26T06:59:53.372Z,1.40
2023-02-26T07:02:21.426Z,1.70
2023-02-26T07:04:20.718Z,2.37
2023-02-26T07:04:48.436Z,1.50
2023-02-26T07:06:49.085Z,2.10
2023-02-26T07:07:15.904Z,2.08
2023-02-26T07:09:45.542Z,1.83
2023-02-26T07:11:45.237Z,1.60
2023-02-26T07:12:12.878Z,2.13
2023-02-26T07:14:13.490Z,1.70
2023-02-26T07:14:40.204Z,1.23
2023-02-26T07:16:41.432Z,2.07
2023-02-26T07:17:07.211Z,1.88
2023-02-26T07:19:09.444Z,2.07
2023-02-26T07:19:34.242Z,1.98
2023-02-26T07:21:39.052Z,2.00
2023-02-26T07:22:01.261Z,2.05
2023-02-26T07:24:28.244Z,1.65
2023-02-26T07:26:55.168Z,2.13
2023-02-26T07:29:22.097Z,1.60
2023-02-26T07:31:48.733Z,1.67
2023-02-26T07:31:49.101Z,2.05
2023-02-26T07:34:16.165Z,1.63
2023-02-26T07:36:43.274Z,2.50
2023-02-26T07:36:51.571Z,1.90
2023-02-26T07:39:11.289Z,1.85
2023-02-26T07:41:38.265Z,2.00
2023-02-26T07:41:52.961Z,2.37
2023-02-26T07:44:05.285Z,2.53
2023-02-26T07:44:21.203Z,2.27
2023-02-26T07:46:32.330Z,1.80
2023-02-26T07:46:50.014Z,2.70
2023-02-26T07:48:59.316Z,1.90
2023-02-26T07:49:18.715Z,2.40
2023-02-26T07:51:26.437Z,1.40
2023-02-26T07:53:53.674Z,1.60
2023-02-26T07:56:20.583Z,2.17
2023-02-26T07:58:47.609Z,2.17
2023-02-26T07:59:24.841Z,2.13
2023-02-26T08:01:14.598Z,1.83
2023-02-26T08:03:41.670Z,2.35
2023-02-26T08:06:08.748Z,1.60
2023-02-26T08:06:54.899Z,2.33
2023-02-26T08:08:35.807Z,1.92
2023-02-26T08:11:02.956Z,1.90
2023-02-26T08:11:58.410Z,2.70
2023-02-26T08:13:29.935Z,1.45
2023-02-26T08:14:29.061Z,2.53
2023-02-26T08:15:56.935Z,1.63
2023-02-26T08:18:24.173Z,1.83
2023-02-26T08:19:30.842Z,2.97
2023-02-26T08:20:52.569Z,2.53
2023-02-26T08:23:19.946Z,1.80
2023-02-26T08:24:34.831Z,2.50
2023-02-26T08:25:46.890Z,2.40
2023-02-26T08:28:13.960Z,2.92
2023-02-26T08:29:31.757Z,2.07
2023-02-26T08:30:40.953Z,3.17
2023-02-26T08:32:00.152Z,2.23
2023-02-26T08:33:08.148Z,2.10
2023-02-26T08:35:35.141Z,1.92
2023-02-26T08:38:02.120Z,2.28
2023-02-26T08:39:41.985Z,3.07
2023-02-26T08:40:29.061Z,2.25
2023-02-26T08:42:11.335Z,2.40
2023-02-26T08:42:56.607Z,2.45
2023-02-26T08:45:24.562Z,2.78
2023-02-26T08:47:15.083Z,2.63
2023-02-26T08:47:57.227Z,2.30
2023-02-26T08:49:45.304Z,2.50
2023-02-26T08:50:24.788Z,2.58
2023-02-26T08:52:13.572Z,2.70
2023-02-26T08:52:51.734Z,2.20
2023-02-26T08:54:43.168Z,2.80
2023-02-26T08:55:18.738Z,2.10
2023-02-26T08:57:45.719Z,2.70
2023-02-26T08:59:44.585Z,2.97
2023-02-26T09:00:13.057Z,2.45
2023-02-26T09:02:40.154Z,2.85
2023-02-26T09:04:47.367Z,2.73
2023-02-26T09:05:07.323Z,2.20
2023-02-26T09:07:34.358Z,1.92
2023-02-26T09:09:46.481Z,2.53
2023-02-26T09:10:01.404Z,2.50
2023-02-26T09:12:14.725Z,2.37
2023-02-26T09:12:28.347Z,1.70
2023-02-26T09:14:43.564Z,3.07
2023-02-26T09:14:55.433Z,3.30
2023-02-26T09:17:12.226Z,2.23
2023-02-26T09:17:22.393Z,3.15
2023-02-26T09:19:40.417Z,2.50
2023-02-26T09:19:49.366Z,2.63
2023-02-26T09:22:16.318Z,2.65
2023-02-26T09:24:43.464Z,2.97
2023-02-26T09:27:10.480Z,2.53
2023-02-26T09:27:16.284Z,2.20
2023-02-26T09:29:37.873Z,2.15
2023-02-26T09:29:44.495Z,2.37
2023-02-26T09:32:08.542Z,2.30
2023-02-26T09:34:38.916Z,6.22
2023-02-26T09:34:46.108Z,1.97
2023-02-26T09:37:06.747Z,4.28
2023-02-26T09:37:14.383Z,3.00
2023-02-26T09:39:33.938Z,3.53
2023-02-26T09:42:08.884Z,1.52
2023-02-26T09:42:20.293Z,2.60
2023-02-26T09:44:38.393Z,1.42
2023-02-26T09:44:53.881Z,3.23
2023-02-26T09:47:11.154Z,1.50
2023-02-26T09:47:25.298Z,2.10
2023-02-26T09:49:41.145Z,1.38
2023-02-26T09:49:54.967Z,2.70
2023-02-26T09:52:18.016Z,1.55
2023-02-26T09:52:26.389Z,2.10
2023-02-26T09:54:47.657Z,1.80
2023-02-26T09:54:58.267Z,2.97
2023-02-26T09:57:20.869Z,1.25
2023-02-26T09:57:31.590Z,2.10
2023-02-26T09:59:47.953Z,1.80
2023-02-26T10:00:01.166Z,2.77
2023-02-26T10:02:23.842Z,1.48
2023-02-26T10:05:11.059Z,2.00
2023-02-26T10:05:29.451Z,2.40
2023-02-26T10:07:42.564Z,3.30
2023-02-26T10:08:06.968Z,1.45
2023-02-26T10:10:23.149Z,2.20
2023-02-26T10:10:51.360Z,1.45
2023-02-26T10:12:55.783Z,2.00
2023-02-26T10:13:24.461Z,1.13
2023-02-26T10:15:27.222Z,2.03
2023-02-26T10:15:52.787Z,1.50
2023-02-26T10:18:06.477Z,1.70
2023-02-26T10:18:27.336Z,1.52
2023-02-26T10:20:42.685Z,1.90
2023-02-26T10:21:00.961Z,1.17
2023-02-26T10:23:19.121Z,1.90
2023-02-26T10:23:50.576Z,1.33
2023-02-26T10:26:20.301Z,1.52
2023-02-26T10:28:35.973Z,1.97
2023-02-26T10:29:05.745Z,1.20
2023-02-26T10:31:38.656Z,1.38
2023-02-26T10:34:18.031Z,1.20
2023-02-26T10:36:24.717Z,2.30
2023-02-26T10:36:51.361Z,1.00
2023-02-26T10:38:56.033Z,2.07
2023-02-26T10:39:28.848Z,1.23
2023-02-26T10:41:28.101Z,1.93
2023-02-26T10:41:59.164Z,0.80
2023-02-26T10:44:30.900Z,1.30
2023-02-26T10:47:22.700Z,1.48
2023-02-26T10:49:59.735Z,1.40
2023-02-26T10:51:48.672Z,1.53
2023-02-26T10:52:27.707Z,2.03
2023-02-26T10:54:22.023Z,1.57
2023-02-26T10:55:04.244Z,1.10
2023-02-26T10:57:35.087Z,1.52
2023-02-26T11:00:03.120Z,1.15
2023-02-26T11:01:54.174Z,1.80
2023-02-26T11:02:35.655Z,1.05
2023-02-26T11:04:24.447Z,2.13
2023-02-26T11:05:07.876Z,1.73
2023-02-26T11:06:54.941Z,2.30
2023-02-26T11:07:37.708Z,1.13
2023-02-26T11:09:26.119Z,1.70
2023-02-26T11:10:05.113Z,0.90
2023-02-26T11:11:55.507Z,1.70
2023-02-26T11:12:32.876Z,1.20
2023-02-26T11:14:28.121Z,2.10
2023-02-26T11:15:01.400Z,1.30
2023-02-26T11:17:32.275Z,1.02
2023-02-26T11:19:30.137Z,1.70
2023-02-26T11:20:15.123Z,0.80
2023-02-26T11:21:58.492Z,1.63
2023-02-26T11:22:45.436Z,1.20
2023-02-26T11:24:32.914Z,2.23
2023-02-26T11:25:14.625Z,0.85
2023-02-26T11:27:04.379Z,1.50
2023-02-26T11:27:46.033Z,0.80
2023-02-26T11:30:18.437Z,0.98
2023-02-26T11:32:18.850Z,1.60
2023-02-26T11:32:46.471Z,0.70
2023-02-26T11:34:48.870Z,1.70
2023-02-26T11:35:14.965Z,1.00
2023-02-26T11:37:42.790Z,0.77
2023-02-26T11:40:13.890Z,0.80
2023-02-26T11:42:20.591Z,1.60
2023-02-26T11:42:52.584Z,0.98
2023-02-26T11:45:20.659Z,0.90
2023-02-26T11:47:19.750Z,1.60
2023-02-26T11:47:48.504Z,0.80
2023-02-26T11:50:17.776Z,1.15
2023-02-26T11:52:29.438Z,1.87
2023-02-26T11:52:46.048Z,1.00
2023-02-26T11:55:20.569Z,1.23
2023-02-26T11:57:54.092Z,1.00
2023-02-26T12:00:25.493Z,0.77
2023-02-26T12:02:52.425Z,1.02
2023-02-26T12:05:19.446Z,1.17
2023-02-26T12:07:48.624Z,1.13
2023-02-26T12:10:19.599Z,1.40
2023-02-26T12:12:58.350Z,1.80
2023-02-26T12:15:52.121Z,1.10
2023-02-26T12:18:25.033Z,1.13
2023-02-26T12:21:04.411Z,1.35
2023-02-26T12:23:59.232Z,0.98
2023-02-26T12:26:34.007Z,1.63
2023-02-26T12:29:21.840Z,1.27
2023-02-26T12:32:01.771Z,1.75
2023-02-26T12:33:41.803Z,1.30
2023-02-26T12:34:56.310Z,0.88
2023-02-26T12:37:28.925Z,1.55
2023-02-26T12:38:52.157Z,1.90
2023-02-26T12:40:11.592Z,2.08
2023-02-26T12:41:34.564Z,1.90
2023-02-26T12:42:44.189Z,1.38
2023-02-26T12:45:14.252Z,1.38
2023-02-26T12:47:47.548Z,1.58
2023-02-26T12:49:33.689Z,1.60
2023-02-26T12:50:20.341Z,1.63
2023-02-26T12:53:05.208Z,1.80
2023-02-26T12:54:51.622Z,2.10
2023-02-26T12:55:39.483Z,1.20
2023-02-26T12:57:28.959Z,2.07
2023-02-26T12:58:09.758Z,1.20
2023-02-26T13:00:13.918Z,1.33
2023-02-26T13:00:58.491Z,1.40
2023-02-26T13:02:55.939Z,1.80
2023-02-26T13:03:36.234Z,1.00
2023-02-26T13:06:25.750Z,1.13
2023-02-26T13:09:04.468Z,1.70
2023-02-26T13:11:41.638Z,2.10
2023-02-26T13:14:34.061Z,1.20
2023-02-26T13:17:03.762Z,1.48
2023-02-26T13:18:58.042Z,1.37
2023-02-26T13:19:36.097Z,1.70
2023-02-26T13:21:38.082Z,1.53
2023-02-26T13:22:05.866Z,1.52
2023-02-26T13:24:39.003Z,1.30
2023-02-26T13:26:56.928Z,1.40
2023-02-26T13:27:06.736Z,1.30
2023-02-26T13:29:37.130Z,1.88
2023-02-26T13:32:15.849Z,1.10
2023-02-26T13:34:41.399Z,1.83
2023-02-26T13:34:47.051Z,1.60
2023-02-26T13:37:19.470Z,2.20
2023-02-26T13:37:33.035Z,1.65
2023-02-26T13:39:59.956Z,1.45
2023-02-26T13:40:00.213Z,1.83
2023-02-26T13:42:29.777Z,1.25
2023-02-26T13:45:04.450Z,1.73
2023-02-26T13:45:16.555Z,1.70
2023-02-26T13:47:42.620Z,1.67
2023-02-26T13:50:15.790Z,2.00
2023-02-26T13:52:53.858Z,1.90
2023-02-26T13:53:05.858Z,1.80
2023-02-26T13:55:42.527Z,1.60
2023-02-26T13:55:51.400Z,2.00
2023-02-26T13:58:24.835Z,2.75
2023-02-26T13:58:34.900Z,1.80
2023-02-26T14:01:09.170Z,1.40
2023-02-26T14:01:10.298Z,2.07
2023-02-26T14:03:37.799Z,1.77
2023-02-26T14:06:07.943Z,1.50
2023-02-26T14:08:40.660Z,1.60
2023-02-26T14:09:08.708Z,2.17
2023-02-26T14:11:26.432Z,1.70
2023-02-26T14:11:46.144Z,1.37
2023-02-26T14:14:08.145Z,1.60
2023-02-26T14:14:16.733Z,2.30
2023-02-26T14:16:35.748Z,1.73
2023-02-26T14:19:21.609Z,1.45
2023-02-26T14:21:53.241Z,1.67
2023-02-26T14:21:59.083Z,1.83
2023-02-26T14:24:36.722Z,1.35
2023-02-26T14:27:12.864Z,1.50
2023-02-26T14:29:58.518Z,1.50
2023-02-26T14:30:18.926Z,2.20
2023-02-26T14:32:36.241Z,1.90
2023-02-26T14:32:49.366Z,1.10
2023-02-26T14:35:11.174Z,1.13
2023-02-26T14:35:24.089Z,1.50
2023-02-26T14:37:39.848Z,1.30
2023-02-26T14:40:12.852Z,1.50
2023-02-26T14:40:41.266Z,1.40
2023-02-26T14:42:45.378Z,1.83
2023-02-26T14:45:32.103Z,2.10
2023-02-26T14:48:00.588Z,2.00
2023-02-26T14:48:30.079Z,1.90
2023-02-26T14:50:31.342Z,1.23
2023-02-26T14:53:13.605Z,1.52
2023-02-26T14:53:51.387Z,1.87
2023-02-26T14:55:46.231Z,1.33
2023-02-26T14:56:36.313Z,1.93
2023-02-26T14:58:13.206Z,1.70
2023-02-26T15:01:12.607Z,1.42
2023-02-26T15:04:07.954Z,1.90
2023-02-26T15:06:43.853Z,1.85
2023-02-26T15:07:47.678Z,1.30
2023-02-26T15:09:11.019Z,1.25
2023-02-26T15:11:58.190Z,1.75
2023-02-26T15:14:44.812Z,1.55
2023-02-26T15:17:27.445Z,1.42
2023-02-26T15:20:11.124Z,1.45
2023-02-26T15:22:56.318Z,1.40
2023-02-26T15:23:44.505Z,1.83
2023-02-26T15:25:30.087Z,1.55
2023-02-26T15:26:18.169Z,1.83
2023-02-26T15:27:57.812Z,1.65
2023-02-26T15:30:25.895Z,1.58
2023-02-26T15:32:57.881Z,1.30
2023-02-26T15:33:57.731Z,1.83
2023-02-26T15:35:25.033Z,2.13
2023-02-26T15:36:35.376Z,2.43
2023-02-26T15:37:54.736Z,2.45
2023-02-26T15:39:09.378Z,1.70
2023-02-26T15:40:21.766Z,1.60
2023-02-26T15:42:55.940Z,3.55
2023-02-26T15:45:27.036Z,2.95
2023-02-26T15:46:55.659Z,1.10
2023-02-26T15:47:59.675Z,2.25
2023-02-26T15:49:41.041Z,1.50
2023-02-26T15:50:28.898Z,1.63
2023-02-26T15:52:57.609Z,1.13
2023-02-26T15:55:25.056Z,1.27
2023-02-26T15:57:18.426Z,2.50
2023-02-26T15:57:53.175Z,1.80
2023-02-26T16:00:25.454Z,1.20
2023-02-26T16:02:35.304Z,2.00
2023-02-26T16:02:58.902Z,0.90
2023-02-26T16:05:04.677Z,1.80
2023-02-26T16:05:26.521Z,1.30
2023-02-26T16:07:53.538Z,1.50
2023-02-26T16:10:07.373Z,1.50
2023-02-26T16:10:38.089Z,3.42
2023-02-26T16:12:39.002Z,2.10
2023-02-26T16:13:06.570Z,8.75
2023-02-26T16:15:10.901Z,1.20
2023-02-26T16:15:35.540Z,5.45
2023-02-26T16:18:04.634Z,1.40
2023-02-26T16:20:36.405Z,1.42
2023-02-26T16:23:05.820Z,3.90
2023-02-26T16:25:36.318Z,2.63
2023-02-26T16:28:05.751Z,1.73
2023-02-26T16:28:07.212Z,1.53
2023-02-26T16:30:35.832Z,1.73
2023-02-26T16:30:39.669Z,2.10
2023-02-26T16:33:04.112Z,1.13
2023-02-26T16:35:38.413Z,1.55
2023-02-26T16:38:13.520Z,1.55
2023-02-26T16:40:41.756Z,1.30
2023-02-26T16:41:01.531Z,1.57
2023-02-26T16:43:24.101Z,1.45
2023-02-26T16:45:54.751Z,2.30
2023-02-26T16:46:17.550Z,2.30
2023-02-26T16:48:26.709Z,1.30
2023-02-26T16:48:50.989Z,2.03
2023-02-26T16:51:09.253Z,1.70
2023-02-26T16:51:25.031Z,1.83
2023-02-26T16:53:39.015Z,1.45
2023-02-26T16:56:06.552Z,2.03
2023-02-26T16:58:35.152Z,1.90
2023-02-26T16:59:05.549Z,2.13
2023-02-26T17:01:09.182Z,1.63
2023-02-26T17:01:38.119Z,1.97
2023-02-26T17:03:38.602Z,2.47
2023-02-26T17:06:11.702Z,4.07
2023-02-26T17:08:51.431Z,4.75
2023-02-26T17:09:35.770Z,1.60
2023-02-26T17:11:24.816Z,3.65
2023-02-26T17:12:09.613Z,2.50
2023-02-26T17:14:03.197Z,1.48
2023-02-26T17:14:41.963Z,2.20
2023-02-26T17:16:30.307Z,1.48
2023-02-26T17:17:10.672Z,1.80
2023-02-26T17:18:57.595Z,1.58
2023-02-26T17:21:25.074Z,1.25
2023-02-26T17:22:17.356Z,2.27
2023-02-26T17:23:52.290Z,1.45
2023-02-26T17:24:47.507Z,1.87
2023-02-26T17:26:19.255Z,0.90
2023-02-26T17:27:21.562Z,2.10
2023-02-26T17:28:46.360Z,1.40
2023-02-26T17:29:54.533Z,2.17
2023-02-26T17:31:15.081Z,1.25
2023-02-26T17:33:43.005Z,1.20
2023-02-26T17:36:12.245Z,1.48
2023-02-26T17:37:37.758Z,2.60
2023-02-26T17:38:39.441Z,1.50
2023-02-26T17:41:06.589Z,1.35
2023-02-26T17:42:57.946Z,2.30
2023-02-26T17:43:33.603Z,1.40
2023-02-26T17:46:00.657Z,3.47
2023-02-26T17:48:28.074Z,2.50
2023-02-26T17:50:55.909Z,1.50
2023-02-26T17:53:23.771Z,1.73
2023-02-26T17:55:53.357Z,1.65
2023-02-26T17:58:27.013Z,1.92
2023-02-26T18:00:54.097Z,1.30
2023-02-26T18:03:21.240Z,1.00
2023-02-26T18:05:48.783Z,1.50
2023-02-26T18:08:18.568Z,1.30
2023-02-26T18:10:45.699Z,1.52
2023-02-26T18:13:12.653Z,1.75
2023-02-26T18:15:39.732Z,1.83
2023-02-26T18:18:06.705Z,1.42
2023-02-26T18:20:33.810Z,1.80
2023-02-26T18:23:00.835Z,1.80
2023-02-26T18:25:28.313Z,2.08
2023-02-26T18:28:02.286Z,1.42
2023-02-26T18:30:31.394Z,1.55
2023-02-26T18:32:58.675Z,2.40
2023-02-26T18:35:27.216Z,1.58
2023-02-26T18:35:47.321Z,2.50
2023-02-26T18:37:54.768Z,2.00
2023-02-26T18:38:31.185Z,3.03
2023-02-26T18:40:23.604Z,1.60
2023-02-26T18:42:51.105Z,1.58
2023-02-26T18:45:19.117Z,2.20
2023-02-26T18:47:47.022Z,2.92
2023-02-26T18:48:39.215Z,2.73
2023-02-26T18:50:15.340Z,2.60
2023-02-26T18:52:43.104Z,3.30
2023-02-26T18:55:12.124Z,3.20
2023-02-26T18:57:40.134Z,3.25
2023-02-26T18:59:16.280Z,3.00
2023-02-26T19:00:09.100Z,2.53
2023-02-26T19:01:47.042Z,2.90
2023-02-26T19:02:36.400Z,3.10
2023-02-26T19:04:17.880Z,3.47
2023-02-26T19:05:03.773Z,3.17
2023-02-26T19:07:31.277Z,2.60
2023-02-26T19:09:30.609Z,3.10
2023-02-26T19:09:58.274Z,3.13
2023-02-26T19:12:26.359Z,3.05
2023-02-26T19:14:45.217Z,3.90
2023-02-26T19:14:53.382Z,3.85
2023-02-26T19:17:21.037Z,5.22
2023-02-26T19:19:47.975Z,6.63
2023-02-26T19:22:15.534Z,5.85
2023-02-26T19:22:28.172Z,2.57
2023-02-26T19:24:43.515Z,5.07
2023-02-26T19:24:58.664Z,3.13
2023-02-26T19:27:11.107Z,5.45
2023-02-26T19:27:37.903Z,3.73
2023-02-26T19:29:39.313Z,6.25
2023-02-26T19:32:07.265Z,6.82
2023-02-26T19:34:34.637Z,7.15
2023-02-26T19:35:30.329Z,3.90
2023-02-26T19:37:01.840Z,7.63
2023-02-26T19:37:59.017Z,3.67
2023-02-26T19:39:28.973Z,7.85
2023-02-26T19:40:29.532Z,3.20
2023-02-26T19:41:56.101Z,7.90
2023-02-26T19:42:57.957Z,3.87
2023-02-26T19:44:23.775Z,8.00
2023-02-26T19:46:51.158Z,8.48
2023-02-26T19:47:59.358Z,4.30
2023-02-26T19:49:18.805Z,8.95
2023-02-26T19:50:27.621Z,4.70
2023-02-26T19:51:45.949Z,9.10
2023-02-26T19:54:14.060Z,13.65
2023-02-26T19:56:42.062Z,11.50
2023-02-26T19:57:59.921Z,7.23
2023-02-26T19:59:09.272Z,10.55
2023-02-26T20:00:28.113Z,8.30
2023-02-26T20:01:36.450Z,10.45
2023-02-26T20:04:03.530Z,8.73
2023-02-26T20:05:29.515Z,7.10
2023-02-26T20:06:30.580Z,10.02
2023-02-26T20:08:57.724Z,9.50
2023-02-26T20:10:31.593Z,5.40
2023-02-26T20:11:25.246Z,8.52
2023-02-26T20:13:01.166Z,6.33
2023-02-26T20:13:52.445Z,9.90
2023-02-26T20:15:29.436Z,6.00
2023-02-26T20:16:19.623Z,12.82
2023-02-26T20:17:57.712Z,5.03
2023-02-26T20:18:46.610Z,14.82
2023-02-26T20:21:14.058Z,22.60
2023-02-26T20:22:58.788Z,7.67
2023-02-26T20:23:41.388Z,15.77
2023-02-26T20:25:26.986Z,7.43
2023-02-26T20:26:14.557Z,15.80
2023-02-26T20:28:42.391Z,16.10
2023-02-26T20:30:29.645Z,6.27
2023-02-26T20:31:09.938Z,14.10
2023-02-26T20:32:57.999Z,5.40
2023-02-26T20:33:39.407Z,13.88
2023-02-26T20:35:26.282Z,5.93
2023-02-26T20:36:07.593Z,14.48
2023-02-26T20:38:35.293Z,24.33
2023-02-26T20:40:27.838Z,5.70
2023-02-26T20:41:02.388Z,24.30
2023-02-26T20:42:56.000Z,6.73
2023-02-26T20:43:29.405Z,22.30
2023-02-26T20:45:24.152Z,5.93
2023-02-26T20:45:56.537Z,18.20
2023-02-26T20:47:55.809Z,5.40
2023-02-26T20:48:24.148Z,15.02
2023-02-26T20:50:53.470Z,15.35
2023-02-26T20:53:21.480Z,13.00
2023-02-26T20:55:30.509Z,5.07
2023-02-26T20:55:48.596Z,10.65
2023-02-26T20:58:15.751Z,14.25
2023-02-26T21:00:33.690Z,5.80
2023-02-26T21:00:43.033Z,16.80
2023-02-26T21:03:10.178Z,23.23
2023-02-26T21:05:36.537Z,3.93
2023-02-26T21:05:38.458Z,21.48
2023-02-26T21:08:05.681Z,12.82
2023-02-26T21:10:32.926Z,14.35
2023-02-26T21:13:00.056Z,13.20
2023-02-26T21:13:06.650Z,6.10
2023-02-26T21:15:27.264Z,18.48
2023-02-26T21:17:54.594Z,13.65
2023-02-26T21:20:22.199Z,10.32
2023-02-26T21:22:49.510Z,6.85
2023-02-26T21:23:06.173Z,5.93
2023-02-26T21:25:16.586Z,6.07
2023-02-26T21:27:43.666Z,4.90
2023-02-26T21:30:11.975Z,4.35
2023-02-26T21:30:40.953Z,5.00
2023-02-26T21:32:39.027Z,4.72
2023-02-26T21:33:10.583Z,5.07
2023-02-26T21:35:06.924Z,4.90
2023-02-26T21:37:34.102Z,4.22
2023-02-26T21:38:07.435Z,4.93
2023-02-26T21:40:01.217Z,4.25
2023-02-26T21:40:36.032Z,4.80
2023-02-26T21:42:28.265Z,3.33
2023-02-26T21:44:55.405Z,4.20
2023-02-26T21:47:22.366Z,4.28
2023-02-26T21:48:14.033Z,5.17
2023-02-26T21:49:49.328Z,4.15
2023-02-26T21:50:42.284Z,4.10
2023-02-26T21:52:16.374Z,3.80
2023-02-26T21:53:10.681Z,4.90
2023-02-26T21:54:43.409Z,3.75
2023-02-26T21:57:10.449Z,4.43
2023-02-26T21:58:12.135Z,4.37
2023-02-26T21:59:37.820Z,5.00
2023-02-26T22:00:40.499Z,4.50
2023-02-26T22:02:05.316Z,3.67
2023-02-26T22:04:33.767Z,4.53
2023-02-26T22:05:44.856Z,4.60
2023-02-26T22:07:00.844Z,4.45
2023-02-26T22:09:27.881Z,4.55
2023-02-26T22:11:54.897Z,4.10
2023-02-26T22:14:22.092Z,4.68
2023-02-26T22:15:55.301Z,3.10